Terminal Aerodrome Forecast
Issued by NWS

Home | Current Version | Previous Version | Text Only | Print | Product List | Glossary On
Versions: 1 2 3 4 5 6 7 8 9 10 11 12 13 14 15 16 17
000
FTUS45 KLKN 220520
TAFELY
TAF
KELY 220520Z 2206/2306 01007KT 6SM -SHSN BKN020 OVC070
      TEMPO 2206/2208 BKN050 OVC070
     FM221000 02006KT P6SM SCT030 OVC130
     FM221900 02008KT P6SM VCSH SCT030 BKN050=

USA.gov is the U.S. government's official web portal to all federal, state and local government web resources and services.